createdAt,value
2022-11-07T00:03:21.527Z,80.60
2022-11-07T00:08:31.979Z,80.23
2022-11-07T00:13:35.747Z,80.36
2022-11-07T00:18:39.560Z,80.50
2022-11-07T00:23:44.373Z,80.63
2022-11-07T00:28:47.789Z,80.81
2022-11-07T00:33:51.259Z,80.70
2022-11-07T00:38:56.256Z,80.76
2022-11-07T00:43:59.657Z,80.57
2022-11-07T00:49:03.154Z,81.04
2022-11-07T00:54:08.096Z,80.87
2022-11-07T00:59:11.448Z,80.57
2022-11-07T01:04:32.568Z,80.05
2022-11-07T01:09:37.329Z,80.09
2022-11-07T01:14:40.703Z,80.32
2022-11-07T01:19:44.097Z,80.04
2022-11-07T01:24:48.856Z,80.23
2022-11-07T01:29:52.320Z,80.24
2022-11-07T01:34:55.769Z,80.33
2022-11-07T01:40:00.533Z,80.36
2022-11-07T01:45:06.098Z,79.95
2022-11-07T01:50:10.958Z,79.75
2022-11-07T01:55:18.950Z,79.85
2022-11-07T02:00:24.410Z,80.30
2022-11-07T02:05:34.289Z,80.00
2022-11-07T02:10:41.063Z,79.84
2022-11-07T02:15:44.561Z,80.02
2022-11-07T02:20:48.570Z,80.04
2022-11-07T02:25:53.395Z,80.22
2022-11-07T02:30:56.788Z,80.19
2022-11-07T02:36:02.047Z,79.95
2022-11-07T02:41:11.679Z,80.39
2022-11-07T02:46:15.875Z,80.82
2022-11-07T02:51:19.303Z,81.37
2022-11-07T02:56:24.578Z,81.79
2022-11-07T03:01:28.071Z,82.47
2022-11-07T03:06:31.531Z,82.81
2022-11-07T03:11:36.288Z,84.35
2022-11-07T03:16:39.678Z,85.51
2022-11-07T03:21:43.007Z,86.29
2022-11-07T03:26:47.788Z,87.70
2022-11-07T03:31:51.154Z,88.64
2022-11-07T03:36:54.827Z,89.35
2022-11-07T03:41:59.601Z,89.63
2022-11-07T03:47:03.010Z,88.78
2022-11-07T03:52:06.576Z,89.29
2022-11-07T03:57:11.426Z,89.00
2022-11-07T04:02:39.881Z,88.38
2022-11-07T04:07:43.382Z,88.18
2022-11-07T04:13:05.792Z,87.74
2022-11-07T04:18:09.213Z,87.61
2022-11-07T04:23:12.898Z,87.00
2022-11-07T04:28:21.695Z,86.21
2022-11-07T04:33:25.118Z,85.82
2022-11-07T04:38:28.477Z,85.22
2022-11-07T04:43:33.241Z,84.87
2022-11-07T04:48:36.624Z,84.37
2022-11-07T04:53:39.970Z,83.89
2022-11-07T04:58:44.736Z,82.89
2022-11-07T05:03:48.083Z,83.10
2022-11-07T05:08:51.481Z,82.79
2022-11-07T05:13:56.308Z,82.65
2022-11-07T05:18:59.714Z,82.62
2022-11-07T05:24:03.088Z,82.51
2022-11-07T05:29:09.114Z,83.13
2022-11-07T05:34:14.659Z,83.25
2022-11-07T05:39:18.426Z,82.66
2022-11-07T05:44:23.159Z,82.54
2022-11-07T05:49:27.055Z,81.63
2022-11-07T05:54:30.496Z,81.78
2022-11-07T05:59:35.328Z,81.67
2022-11-07T06:04:39.018Z,81.60
2022-11-07T06:09:42.350Z,82.02
2022-11-07T06:14:47.148Z,81.12
2022-11-07T06:19:50.651Z,81.28
2022-11-07T06:24:53.987Z,80.27
2022-11-07T06:29:58.796Z,80.10
2022-11-07T06:35:02.199Z,80.39
2022-11-07T06:40:07.784Z,79.84
2022-11-07T06:45:13.198Z,79.57
2022-11-07T06:50:16.568Z,79.65
2022-11-07T06:55:21.995Z,79.40
2022-11-07T07:00:26.903Z,79.24
2022-11-07T07:05:30.341Z,77.81
2022-11-07T07:10:37.568Z,77.30
2022-11-07T07:15:50.905Z,76.56
2022-11-07T07:21:02.753Z,75.72
2022-11-07T07:26:07.736Z,75.06
2022-11-07T07:31:24.498Z,74.53
2022-11-07T07:36:27.930Z,73.79
2022-11-07T07:41:33.979Z,73.06
2022-11-07T07:46:43.118Z,71.67
2022-11-07T07:51:46.495Z,71.38
2022-11-07T07:56:49.998Z,70.55
2022-11-07T08:01:57.156Z,70.85
2022-11-07T08:07:00.920Z,71.25
2022-11-07T08:12:04.624Z,70.03
2022-11-07T08:17:09.425Z,70.14
2022-11-07T08:22:12.763Z,70.09
2022-11-07T08:27:16.232Z,69.08
2022-11-07T08:32:21.024Z,66.38
2022-11-07T08:37:24.914Z,64.62
2022-11-07T08:42:28.320Z,63.44
2022-11-07T08:47:33.040Z,65.54
2022-11-07T08:52:37.141Z,66.70
2022-11-07T08:57:40.564Z,65.25
2022-11-07T09:08:09.801Z,59.59
2022-11-07T09:13:14.935Z,59.15
2022-11-07T09:18:20.205Z,57.34
2022-11-07T09:23:23.576Z,56.48
2022-11-07T09:28:26.971Z,56.70
2022-11-07T09:33:32.485Z,56.12
2022-11-07T09:38:35.846Z,57.20
2022-11-07T09:44:00.424Z,54.82
2022-11-07T09:49:15.642Z,54.16
2022-11-07T09:54:23.379Z,54.34
2022-11-07T09:59:31.155Z,53.42
2022-11-07T10:04:37.187Z,53.82
2022-11-07T10:09:48.589Z,55.17
2022-11-07T10:15:01.068Z,54.93
2022-11-07T10:20:24.703Z,54.74
2022-11-07T10:25:35.299Z,54.04
2022-11-07T10:30:38.691Z,51.88
2022-11-07T10:35:49.157Z,51.73
2022-11-07T10:40:52.895Z,52.67
2022-11-07T10:45:56.966Z,50.63
2022-11-07T10:51:01.970Z,50.48
2022-11-07T10:56:12.290Z,51.04
2022-11-07T11:01:15.772Z,51.85
2022-11-07T11:06:30.268Z,51.88
2022-11-07T11:11:37.135Z,51.66
2022-11-07T11:16:43.244Z,50.93
2022-11-07T11:21:50.197Z,50.03
2022-11-07T11:26:55.117Z,50.08
2022-11-07T11:32:03.437Z,50.16
2022-11-07T11:37:15.568Z,50.98
2022-11-07T11:42:31.768Z,49.97
2022-11-07T11:47:38.835Z,49.46
2022-11-07T11:52:44.354Z,50.44
2022-11-07T11:57:56.706Z,50.47
2022-11-07T12:03:26.103Z,51.67
2022-11-07T12:08:48.980Z,52.29
2022-11-07T12:14:01.469Z,50.89
2022-11-07T12:19:17.002Z,51.85
2022-11-07T12:24:34.452Z,51.93
2022-11-07T12:29:55.866Z,53.40
2022-11-07T12:35:29.425Z,52.37
2022-11-07T12:40:45.732Z,53.73
2022-11-07T12:45:58.115Z,52.53
2022-11-07T12:51:09.559Z,53.74
2022-11-07T12:56:18.947Z,54.20
2022-11-07T13:01:29.533Z,55.05
2022-11-07T13:06:38.556Z,54.88
2022-11-07T13:11:50.750Z,55.87
2022-11-07T13:17:04.431Z,57.27
2022-11-07T13:22:20.951Z,58.00
2022-11-07T13:27:33.615Z,56.46
2022-11-07T13:32:40.134Z,57.70
2022-11-07T13:37:48.159Z,57.56
2022-11-07T13:42:57.589Z,57.16
2022-11-07T13:48:04.537Z,57.64
2022-11-07T13:53:17.390Z,58.71
2022-11-07T13:58:34.670Z,59.12
2022-11-07T14:03:38.042Z,59.38
2022-11-07T14:08:45.413Z,60.13
2022-11-07T14:13:53.579Z,60.48
2022-11-07T14:19:00.699Z,60.54
2022-11-07T14:24:04.809Z,60.62
2022-11-07T14:29:09.589Z,61.35
2022-11-07T14:34:20.520Z,61.79
2022-11-07T14:39:26.868Z,63.48
2022-11-07T14:50:02.023Z,63.05
2022-11-07T14:55:13.977Z,63.59
2022-11-07T15:00:22.529Z,63.98
2022-11-07T15:05:28.791Z,63.72
2022-11-07T15:10:35.550Z,64.18
2022-11-07T15:15:40.445Z,64.17
2022-11-07T15:20:43.820Z,64.30
2022-11-07T15:25:54.394Z,64.68
2022-11-07T15:31:00.713Z,65.38
2022-11-07T15:36:04.187Z,65.66
2022-11-07T15:41:07.934Z,66.47
2022-11-07T15:46:24.334Z,66.41
2022-11-07T15:51:27.760Z,67.33
2022-11-07T15:56:31.220Z,68.06
2022-11-07T16:01:36.229Z,68.61
2022-11-07T16:06:44.908Z,69.08
2022-11-07T16:11:49.854Z,69.63
2022-11-07T16:16:54.746Z,69.71
2022-11-07T16:21:58.151Z,70.10
2022-11-07T16:27:01.670Z,70.43
2022-11-07T16:32:06.672Z,70.62
2022-11-07T16:37:11.475Z,70.42
2022-11-07T16:42:16.654Z,70.89
2022-11-07T16:47:21.573Z,70.90
2022-11-07T16:52:25.422Z,71.31
2022-11-07T16:57:28.969Z,71.71
2022-11-07T17:02:34.277Z,72.09
2022-11-07T17:07:37.763Z,72.11
2022-11-07T17:12:41.126Z,72.24
2022-11-07T17:17:46.007Z,72.05
2022-11-07T17:22:49.377Z,72.85
2022-11-07T17:27:52.736Z,72.31
2022-11-07T17:32:57.548Z,71.89
2022-11-07T17:38:00.955Z,72.73
2022-11-07T17:43:04.732Z,72.16
2022-11-07T17:48:10.304Z,72.01
2022-11-07T17:53:13.663Z,71.98
2022-11-07T17:58:17.279Z,70.75
2022-11-07T18:03:22.155Z,70.54
2022-11-07T18:08:46.303Z,71.29
2022-11-07T18:13:51.242Z,71.81
2022-11-07T18:18:56.065Z,70.69
2022-11-07T18:23:59.840Z,70.85
2022-11-07T18:29:05.672Z,69.73
2022-11-07T18:34:13.394Z,69.92
2022-11-07T18:39:19.011Z,70.01
2022-11-07T18:44:22.433Z,69.25
2022-11-07T18:49:27.267Z,71.01
2022-11-07T18:54:30.596Z,71.04
2022-11-07T18:59:34.395Z,70.48
2022-11-07T19:04:39.473Z,70.73
2022-11-07T19:09:42.891Z,70.03
2022-11-07T19:14:46.306Z,69.74
2022-11-07T19:19:51.308Z,70.14
2022-11-07T19:24:54.955Z,70.66
2022-11-07T19:29:58.339Z,70.31
2022-11-07T19:35:03.075Z,70.51
2022-11-07T19:40:07.942Z,70.00
2022-11-07T19:45:12.555Z,69.34
2022-11-07T19:50:17.439Z,70.24
2022-11-07T19:55:20.885Z,69.95
2022-11-07T20:00:26.299Z,69.61
2022-11-07T20:05:34.360Z,69.23
2022-11-07T20:10:37.734Z,70.40
2022-11-07T20:15:41.554Z,69.36
2022-11-07T20:20:46.344Z,70.56
2022-11-07T20:25:49.716Z,69.78
2022-11-07T20:30:56.077Z,69.56
2022-11-07T20:36:03.098Z,69.61
2022-11-07T20:41:09.032Z,69.88
2022-11-07T20:46:14.951Z,70.53
2022-11-07T20:51:21.962Z,70.36
2022-11-07T20:56:27.428Z,70.16
2022-11-07T21:01:36.224Z,70.57
2022-11-07T21:06:41.421Z,70.56
2022-11-07T21:11:44.941Z,70.46
2022-11-07T21:16:48.254Z,71.18
2022-11-07T21:21:53.034Z,70.82
2022-11-07T21:26:56.418Z,70.28
2022-11-07T21:31:59.804Z,69.80
2022-11-07T21:37:04.766Z,70.02
2022-11-07T21:42:08.158Z,69.88
2022-11-07T21:47:11.540Z,70.77
2022-11-07T21:52:17.359Z,70.27
2022-11-07T21:57:20.736Z,71.51
2022-11-07T22:02:24.155Z,70.45
2022-11-07T22:07:28.932Z,69.75
2022-11-07T22:12:32.350Z,69.37
2022-11-07T22:17:36.141Z,71.02
2022-11-07T22:22:41.411Z,71.93
2022-11-07T22:27:44.780Z,71.89
2022-11-07T22:32:48.157Z,71.41
2022-11-07T22:37:52.870Z,71.37
2022-11-07T22:42:56.251Z,71.33
2022-11-07T22:47:59.693Z,71.11
2022-11-07T22:53:04.996Z,70.96
2022-11-07T22:58:08.384Z,70.38
2022-11-07T23:03:11.830Z,70.41
2022-11-07T23:08:16.881Z,71.54
2022-11-07T23:13:20.413Z,70.83
2022-11-07T23:18:24.034Z,72.51
2022-11-07T23:23:28.784Z,73.36
2022-11-07T23:28:32.153Z,73.49
2022-11-07T23:33:36.979Z,73.71
2022-11-07T23:38:41.974Z,72.40
2022-11-07T23:43:49.865Z,72.62
2022-11-07T23:49:14.722Z,72.10
2022-11-07T23:54:37.461Z,71.08
2022-11-07T23:59:58.230Z,70.69
